Rahway, NJ (07065)

5:12 AM EST on November 23, 2014 (GMT -0500)
(Church St. near Rahway River) | Change Station
CLOSE
Current Station
Personal Weather Station
Location: Rahway, NJ
Elevation: 20 ft
Nearby Weather Stations

Elev 20 ft 40.61 °N, 74.28 °W | Updated 4 seconds ago

Overcast
Overcast
41.6 °F
Feels Like 38 °F
N
6.0
Wind Variable Wind from West
Gusts 7.0 mph

Today
High -- | Low -- °F
--% Chance of Precip.
Yesterday
High -- | Low -- °F
Precip. -- in
6:52 AM 4:33 PM
New Moon, 1% visible
Pressure 30.21 in
Visibility 10.0 miles
Clouds Scattered Clouds 9500 ft
Overcast 12000 ft
Windchill 38 °F
Dew Point 28 °F
Humidity 58%
Rainfall 0.07 in
Snow Depth Not available.
UV 0 out of 12
Pollen .10 out of 12
Air Quality Not available.
Flu Activity Not available.
METAR KLDJ 231015Z AUTO 27007KT 10SM SCT095 OVC120 08/M03 A3021 RMK AO2 T00781031

More Conditions Fewer Conditions

Pressure 30.21 in
Visibility 10.0 miles
Clouds Scattered Clouds 9500 ft
Overcast 12000 ft
Windchill 38 °F
Dew Point 28 °F
Humidity 58%
Rainfall 0.07 in
Snow Depth Not available.
UV 0 out of 12
Pollen .10 out of 12
Air Quality Not available.
Flu Activity Not available.
METAR KLDJ 231015Z AUTO 27007KT 10SM SCT095 OVC120 08/M03 A3021 RMK AO2 T00781031

More Conditions Fewer Conditions

10-Day Weather Forecast

Almanac

Astronomy

Nov. 23, 2014 Rise Set
Actual Time
Civil Twilight
Nautical Twilight
Astronomical Twilight
Moon
Length of Visible Light
Length of Day
Tomorrow will be .
, % of the Moon is Illuminated

Today's Extremes

State Highs State Lows

Community

WunderPhotos

Upload Photos

1,773,031 photos uploaded!

WunderBlogs® & News

Nearby

Air Quality

  Air Quality AQ Index Pollutant
Not available.

Snow Depth

Station Depth Elevation

Earthquake Activity

City Distance Mag. Time & Date
Minimum magnitude displayed is 2.5.

Coastal Water Temperatures

Place Temperature

Nearby Weather Stations